Terminal Aerodrome Forecast
Issued by NWS

Home | Current Version | Previous Version | Text Only | Print | Product List | Glossary Off
Versions: 1 2 3 4 5 6 7 8 9 10 11 12 13 14 15 16 17 18 19 20 21

142
FTUS43 KBIS 281358 AAA
TAFJMS
TAF AMD
KJMS 281358Z 2814/2912 01004KT P6SM OVC015
     FM281600 04004KT P6SM SCT025
     FM281800 06005KT P6SM SKC
     FM282300 07004KT P6SM SKC
     FM290200 11004KT P6SM SKC=

USA.gov is the U.S. government's official web portal to all federal, state and local government web resources and services.